Time;durP1;ratioP1;P1;durP2;ratioP2;P2;SDS_P1;SDS_P2;PMS_P1;PMS_P2;Temp;Humidity;BMP_temperature;BMP_pressure;BME280_temperature;BME280_humidity;BME280_pressure;Samples;Min_cycle;Max_cycle;Signal;HPM_P1;HPM_P2
2021/11/18 00:01:20;;;;;;;;;22.00;18.00;;;;;12.54;47.50;99363.88;6251794;27;96566;-66
2021/11/18 00:04:23;;;;;;;;;20.40;19.00;;;;;12.56;47.57;99362.59;6234766;27;96711;-66
2021/11/18 00:07:27;;;;;;;;;22.50;17.50;;;;;12.57;47.44;99360.72;6241335;27;97084;-68
2021/11/18 00:10:34;;;;;;;;;21.60;20.00;;;;;12.59;47.49;99364.84;6240048;27;97462;-67
2021/11/18 00:13:40;;;;;;;;;21.00;19.00;;;;;12.43;47.52;99321.31;6248808;27;97932;-70
2021/11/18 00:16:45;;;;;;;;;20.00;19.00;;;;;12.67;47.55;99362.91;6243830;27;97031;-66
2021/11/18 00:19:48;;;;;;;;;23.80;19.80;;;;;12.67;47.73;99369.13;6248265;27;97258;-66
2021/11/18 00:22:51;;;;;;;;;20.40;18.40;;;;;12.65;47.52;99371.25;6249671;27;96925;-65
2021/11/18 00:25:56;;;;;;;;;25.50;20.00;;;;;12.64;47.70;99372.31;6250651;27;96661;-65
2021/11/18 00:29:00;;;;;;;;;22.50;20.00;;;;;12.64;47.91;99382.28;6255393;27;97411;-67
2021/11/18 00:32:04;;;;;;;;;23.40;20.80;;;;;12.63;47.83;99383.34;6234880;27;96785;-66
2021/11/18 00:35:14;;;;;;;;;24.20;21.60;;;;;12.62;47.96;99379.81;6233868;27;97325;-67
2021/11/18 00:38:17;;;;;;;;;22.80;20.00;;;;;12.70;47.94;99379.53;6262156;27;97185;-67
2021/11/18 00:41:24;;;;;;;;;27.00;23.00;;;;;12.64;48.23;99383.13;6256118;27;96512;-67
2021/11/18 00:44:28;;;;;;;;;23.00;21.00;;;;;12.60;48.54;99387.34;6237963;27;98046;-68
2021/11/18 00:47:31;;;;;;;;;24.00;21.00;;;;;12.53;48.50;99390.09;6260193;27;97083;-67
2021/11/18 00:50:38;;;;;;;;;29.00;25.60;;;;;12.58;48.44;99384.84;6243515;27;99278;-66
2021/11/18 00:54:04;;;;;;;;;27.00;22.00;;;;;12.63;48.39;99388.75;6238555;27;97089;-66
2021/11/18 00:57:10;;;;;;;;;25.00;20.20;;;;;12.54;48.52;99393.63;6253573;27;97262;-68
2021/11/18 01:00:20;;;;;;;;;24.20;21.60;;;;;12.50;48.68;99392.41;6239687;27;97027;-69
2021/11/18 01:03:26;;;;;;;;;26.00;22.40;;;;;12.50;48.66;99404.06;6234985;28;96543;-68
2021/11/18 01:06:29;;;;;;;;;26.00;23.00;;;;;12.37;48.88;99401.44;6240522;27;97126;-66
2021/11/18 01:09:33;;;;;;;;;23.60;22.00;;;;;12.35;49.02;99394.63;6247573;27;96681;-67
2021/11/18 01:12:37;;;;;;;;;24.25;22.00;;;;;12.32;48.97;99395.88;6246995;27;96555;-69
2021/11/18 01:15:45;;;;;;;;;21.00;19.00;;;;;12.26;49.35;99398.66;6243207;27;96560;-69
2021/11/18 01:18:48;;;;;;;;;24.60;20.80;;;;;12.34;49.56;99404.59;6221323;28;98335;-69
2021/11/18 01:21:53;;;;;;;;;24.80;22.00;;;;;12.39;49.60;99399.38;6222845;27;97582;-67
2021/11/18 01:24:57;;;;;;;;;19.00;18.80;;;;;12.40;49.34;99401.03;6245295;27;97306;-69
2021/11/18 01:28:05;;;;;;;;;26.50;21.50;;;;;12.40;49.40;99400.19;6212366;28;97613;-67
2021/11/18 01:31:09;;;;;;;;;21.60;20.00;;;;;12.42;49.23;99396.22;6229027;27;96607;-68
2021/11/18 01:34:13;;;;;;;;;23.00;19.00;;;;;12.48;49.58;99397.22;6216748;27;97820;-66
2021/11/18 01:37:18;;;;;;;;;22.50;19.00;;;;;12.37;49.50;99385.22;6218248;27;97709;-68
2021/11/18 01:40:24;;;;;;;;;26.00;23.00;;;;;12.28;49.90;99385.72;6219908;27;96896;-69
2021/11/18 01:43:36;;;;;;;;;24.00;21.60;;;;;12.27;49.93;99403.81;6245569;27;96448;-65
2021/11/18 01:46:40;;;;;;;;;24.00;22.60;;;;;12.26;49.86;99398.66;6243127;27;97078;-66
2021/11/18 01:49:54;;;;;;;;;21.50;18.50;;;;;12.29;49.77;99395.50;6228121;27;98031;-67
2021/11/18 01:53:00;;;;;;;;;21.00;19.00;;;;;12.27;49.75;99392.19;6242081;27;97270;-68
2021/11/18 01:56:08;;;;;;;;;24.40;22.40;;;;;12.28;49.86;99389.25;6232331;27;96697;-68
2021/11/18 01:59:15;;;;;;;;;24.40;21.80;;;;;12.33;49.57;99386.72;6224857;27;98355;-66
2021/11/18 02:02:26;;;;;;;;;24.00;21.60;;;;;12.27;49.66;99373.25;6210956;27;97762;-68
2021/11/18 02:05:55;;;;;;;;;22.00;20.00;;;;;12.34;49.64;99368.63;6260637;27;96447;-67
2021/11/18 02:08:59;;;;;;;;;21.80;20.00;;;;;12.29;49.57;99376.56;6245164;27;97108;-69
2021/11/18 02:12:23;;;;;;;;;19.20;18.00;;;;;12.24;49.63;99377.25;6241806;27;96778;-67
2021/11/18 02:15:31;;;;;;;;;23.00;19.00;;;;;12.26;49.78;99375.16;6221316;27;97266;-68
2021/11/18 02:18:36;;;;;;;;;24.00;19.00;;;;;12.31;49.48;99364.50;6237043;27;97363;-65
2021/11/18 02:21:48;;;;;;;;;21.60;19.00;;;;;12.34;49.28;99374.03;6245020;27;97837;-69
2021/11/18 02:24:56;;;;;;;;;21.50;19.00;;;;;12.24;49.11;99355.59;6234664;27;96654;-66
2021/11/18 02:28:00;;;;;;;;;22.00;18.00;;;;;12.32;49.27;99382.34;6242131;27;96697;-68
2021/11/18 02:31:17;;;;;;;;;20.00;17.00;;;;;12.15;49.13;99351.53;6216584;28;99271;-69
2021/11/18 02:34:27;;;;;;;;;22.33;20.33;;;;;12.37;48.94;99374.41;6248085;27;97006;-66
2021/11/18 02:37:32;;;;;;;;;24.40;19.00;;;;;12.32;49.10;99373.41;6226998;27;96545;-69
2021/11/18 02:40:36;;;;;;;;;19.40;18.00;;;;;12.28;49.14;99372.22;6259894;27;97549;-68
2021/11/18 02:43:39;;;;;;;;;18.20;17.00;;;;;12.25;49.15;99376.19;6240727;27;97514;-69
2021/11/18 02:46:43;;;;;;;;;19.60;18.60;;;;;12.30;49.06;99386.34;6224626;27;96923;-68
2021/11/18 02:49:49;;;;;;;;;20.50;18.00;;;;;12.37;48.71;99385.22;6231371;28;97560;-66
2021/11/18 02:52:56;;;;;;;;;22.50;19.00;;;;;12.23;49.10;99390.97;6240635;27;96526;-67
2021/11/18 02:56:00;;;;;;;;;20.00;18.67;;;;;12.28;49.20;99385.72;6241055;27;97044;-66
2021/11/18 02:59:05;;;;;;;;;21.40;18.00;;;;;12.28;49.06;99391.97;6228695;27;97143;-66
2021/11/18 03:02:10;;;;;;;;;22.60;19.60;;;;;12.27;48.92;99401.13;6228271;27;98622;-70
2021/11/18 03:05:16;;;;;;;;;16.80;15.80;;;;;12.31;49.18;99412.34;6238353;27;96691;-69
2021/11/18 03:08:24;;;;;;;;;18.40;16.20;;;;;12.36;48.74;99401.69;6239097;27;97184;-66
2021/11/18 03:11:31;;;;;;;;;19.60;17.60;;;;;12.31;48.92;99413.16;6245579;27;96798;-66
2021/11/18 03:14:35;;;;;;;;;21.40;17.40;;;;;12.27;48.78;99401.13;6245316;27;96742;-67
2021/11/18 03:17:39;;;;;;;;;19.00;16.60;;;;;12.47;48.66;99414.47;6244129;27;97504;-70
2021/11/18 03:21:05;;;;;;;;;21.60;20.00;;;;;12.50;48.67;99406.78;6206581;28;97899;-65
2021/11/18 03:24:11;;;;;;;;;22.60;18.20;;;;;12.51;48.73;99415.72;6234603;27;97168;-68
2021/11/18 03:27:14;;;;;;;;;22.25;18.25;;;;;12.46;49.03;99412.84;6225700;27;97458;-66
2021/11/18 03:30:22;;;;;;;;;21.40;19.00;;;;;12.45;49.15;99422.00;6239738;27;96606;-69
2021/11/18 03:33:32;;;;;;;;;22.75;19.75;;;;;12.44;49.19;99421.16;6221268;27;96828;-65
2021/11/18 03:36:36;;;;;;;;;21.40;19.40;;;;;12.48;49.21;99418.84;6242195;27;97475;-67
2021/11/18 03:39:41;;;;;;;;;26.80;19.00;;;;;12.57;48.90;99418.34;6219005;28;99587;-68
2021/11/18 03:42:45;;;;;;;;;24.00;19.50;;;;;12.54;48.97;99418.78;6233230;27;97694;-69
2021/11/18 03:45:54;;;;;;;;;24.00;22.00;;;;;12.32;49.50;99436.44;6235474;28;97189;-69
2021/11/18 03:49:00;;;;;;;;;24.00;21.60;;;;;12.33;49.57;99434.56;6221064;27;98387;-70
2021/11/18 03:52:07;;;;;;;;;23.50;21.50;;;;;12.32;49.64;99435.59;6237316;27;96924;-67
2021/11/18 03:55:15;;;;;;;;;25.00;23.40;;;;;12.27;49.93;99438.97;6236745;27;96584;-68
2021/11/18 03:58:21;;;;;;;;;25.80;22.00;;;;;12.23;49.91;99434.22;6230730;27;98248;-69
2021/11/18 04:01:26;;;;;;;;;24.40;21.40;;;;;12.26;49.96;99440.03;6238784;27;97607;-69
2021/11/18 04:04:32;;;;;;;;;23.50;22.50;;;;;12.34;50.06;99431.66;6231040;27;96670;-68
2021/11/18 04:07:39;;;;;;;;;22.75;21.75;;;;;12.33;50.05;99437.25;6234129;27;99577;-67
2021/11/18 04:10:44;;;;;;;;;25.00;22.60;;;;;12.23;50.30;99435.03;6240864;27;97218;-68
2021/11/18 04:13:47;;;;;;;;;23.00;21.50;;;;;12.26;50.31;99437.34;6223415;27;99741;-66
2021/11/18 04:16:51;;;;;;;;;24.75;22.75;;;;;12.17;50.57;99435.91;6237115;27;97577;-66
2021/11/18 04:19:55;;;;;;;;;24.00;23.00;;;;;12.15;50.80;99438.84;6232542;27;98097;-69
2021/11/18 04:22:59;;;;;;;;;24.50;23.00;;;;;12.23;50.73;99440.44;6243816;27;96658;-67
2021/11/18 04:26:04;;;;;;;;;21.60;19.20;;;;;12.23;50.81;99440.44;6240851;27;97621;-67
2021/11/18 04:29:11;;;;;;;;;24.00;21.00;;;;;12.23;50.79;99435.03;6229587;27;97644;-65
2021/11/18 04:32:16;;;;;;;;;24.75;22.75;;;;;12.25;50.54;99438.38;6246669;27;97510;-66
2021/11/18 04:35:23;;;;;;;;;25.60;23.00;;;;;12.33;50.64;99446.19;6247461;27;97186;-69
2021/11/18 04:38:27;;;;;;;;;25.50;22.00;;;;;12.23;50.90;99453.13;6229297;27;97428;-66
2021/11/18 04:41:32;;;;;;;;;25.60;23.00;;;;;12.29;50.56;99454.97;6233595;28;96569;-65
2021/11/18 04:44:36;;;;;;;;;28.00;24.00;;;;;12.25;50.83;99449.19;6238735;27;97024;-66
2021/11/18 04:47:39;;;;;;;;;24.75;21.00;;;;;12.27;50.89;99441.66;6226666;27;97475;-67
2021/11/18 04:50:44;;;;;;;;;24.40;22.00;;;;;12.46;50.79;99458.81;6232788;27;97104;-66
2021/11/18 04:53:50;;;;;;;;;26.80;23.80;;;;;12.44;51.07;99455.50;6243219;27;96645;-70
2021/11/18 04:56:57;;;;;;;;;26.60;22.00;;;;;12.50;50.92;99460.03;6248141;27;98008;-69
2021/11/18 05:00:01;;;;;;;;;23.00;20.80;;;;;12.40;51.46;99460.53;6220565;27;97606;-69
2021/11/18 05:03:10;;;;;;;;;22.00;21.00;;;;;12.47;51.41;99465.84;6241793;27;96790;-64
2021/11/18 05:06:15;;;;;;;;;22.00;21.00;;;;;12.31;51.84;99450.19;6217979;27;99578;-65
2021/11/18 05:09:19;;;;;;;;;23.60;21.00;;;;;12.39;52.00;99469.66;6219191;27;96945;-68
2021/11/18 05:12:25;;;;;;;;;23.00;20.60;;;;;12.22;52.51;99462.31;6235265;27;97213;-69
2021/11/18 05:15:31;;;;;;;;;22.50;20.00;;;;;12.11;52.97;99471.94;6235884;27;96613;-66
2021/11/18 05:18:41;;;;;;;;;21.25;20.00;;;;;12.09;53.30;99471.31;6212864;27;96946;-66
2021/11/18 05:21:45;;;;;;;;;21.60;18.00;;;;;12.07;53.36;99468.81;6218071;27;97790;-65
2021/11/18 05:24:48;;;;;;;;;21.60;17.60;;;;;12.04;53.57;99482.78;6229762;28;97086;-65
2021/11/18 05:27:53;;;;;;;;;20.75;18.00;;;;;12.03;53.87;99474.88;6223930;28;96672;-68
2021/11/18 05:30:57;;;;;;;;;24.50;18.50;;;;;12.02;54.05;99487.56;6225222;27;97135;-65
2021/11/18 05:34:01;;;;;;;;;20.00;18.00;;;;;12.02;54.13;99487.56;6220003;27;97268;-65
2021/11/18 05:37:10;;;;;;;;;26.00;20.00;;;;;12.01;54.15;99498.63;6232805;27;97467;-69
2021/11/18 05:40:15;;;;;;;;;20.60;18.00;;;;;11.98;54.63;99499.03;6226578;27;97219;-67
2021/11/18 05:43:23;;;;;;;;;22.40;18.40;;;;;11.95;54.36;99497.59;6255890;27;97964;-67
2021/11/18 05:46:27;;;;;;;;;18.40;18.00;;;;;11.94;54.66;99504.03;6232168;28;97845;-65
2021/11/18 05:49:30;;;;;;;;;19.60;16.20;;;;;11.98;54.54;99502.56;6250335;27;97093;-67
2021/11/18 05:52:40;;;;;;;;;19.00;17.67;;;;;12.04;54.28;99511.69;6204669;27;97295;-64
2021/11/18 05:55:43;;;;;;;;;21.60;18.20;;;;;11.89;54.71;99494.91;6202994;27;98390;-64
2021/11/18 05:58:52;;;;;;;;;20.00;17.40;;;;;12.02;54.59;99516.50;6226062;27;97078;-64
2021/11/18 06:01:56;;;;;;;;;19.00;18.00;;;;;12.01;54.51;99517.53;6226754;27;96867;-68
2021/11/18 06:05:00;;;;;;;;;18.00;16.00;;;;;12.14;54.22;99526.41;6222725;27;97444;-66
2021/11/18 06:08:05;;;;;;;;;20.00;17.00;;;;;12.19;54.00;99533.03;6233492;27;97454;-66
2021/11/18 06:11:10;;;;;;;;;22.40;19.40;;;;;12.26;53.94;99531.13;6236108;27;97478;-65
2021/11/18 06:14:15;;;;;;;;;20.25;18.25;;;;;12.30;53.84;99540.44;6229644;27;96693;-68
2021/11/18 06:17:21;;;;;;;;;18.20;17.00;;;;;12.30;53.90;99537.75;6231211;27;97304;-68
2021/11/18 06:20:24;;;;;;;;;20.00;17.00;;;;;12.27;53.94;99547.09;6217690;27;97835;-67
2021/11/18 06:23:28;;;;;;;;;18.00;16.00;;;;;12.41;53.51;99553.28;6238510;27;97601;-66
2021/11/18 06:26:32;;;;;;;;;22.00;19.00;;;;;12.48;53.27;99552.19;6238972;27;97419;-66
2021/11/18 06:29:38;;;;;;;;;18.00;16.80;;;;;12.51;53.11;99554.44;6231365;27;97310;-68
2021/11/18 06:32:42;;;;;;;;;20.80;17.40;;;;;12.46;53.10;99545.34;6245465;27;96722;-68
2021/11/18 06:35:46;;;;;;;;;21.60;20.00;;;;;12.53;52.87;99563.19;6248683;27;96584;-69
2021/11/18 06:39:09;;;;;;;;;22.00;20.00;;;;;12.49;53.10;99553.84;6241663;27;96542;-66
2021/11/18 06:42:15;;;;;;;;;21.00;18.20;;;;;12.43;53.09;99564.69;6230129;27;96478;-69
2021/11/18 06:45:36;;;;;;;;;19.20;17.00;;;;;12.57;53.00;99561.69;6243938;27;96604;-65
2021/11/18 06:48:45;;;;;;;;;23.00;20.00;;;;;12.60;52.79;99552.34;6244493;27;97535;-69
2021/11/18 06:51:50;;;;;;;;;18.00;16.40;;;;;12.71;52.68;99537.25;6246015;27;96750;-66
2021/11/18 06:54:54;;;;;;;;;20.20;18.20;;;;;12.72;52.26;99550.56;6243231;27;97411;-65
2021/11/18 06:57:57;;;;;;;;;25.00;20.00;;;;;12.71;52.57;99556.19;6230078;27;97535;-68
2021/11/18 07:01:03;;;;;;;;;22.60;20.60;;;;;12.78;52.28;99559.69;6254302;27;96672;-66
2021/11/18 07:04:08;;;;;;;;;21.20;19.80;;;;;12.77;52.15;99563.44;6239198;28;97715;-68
2021/11/18 07:07:14;;;;;;;;;22.00;20.00;;;;;12.79;52.01;99558.66;6236154;28;96494;-65
2021/11/18 07:10:19;;;;;;;;;27.60;23.60;;;;;12.86;51.87;99562.13;6231851;27;98117;-66
2021/11/18 07:13:37;;;;;;;;;23.00;20.00;;;;;12.75;52.09;99560.97;6243838;27;96691;-68
2021/11/18 07:16:42;;;;;;;;;25.00;23.60;;;;;12.91;51.76;99568.53;6239817;27;97860;-66
2021/11/18 07:19:50;;;;;;;;;25.20;23.00;;;;;12.84;52.06;99567.78;6249325;27;96627;-66
2021/11/18 07:22:54;;;;;;;;;23.00;20.20;;;;;13.00;51.75;99566.38;6251529;27;97396;-68
2021/11/18 07:26:10;;;;;;;;;28.20;24.00;;;;;13.02;51.56;99559.69;6206977;28;98648;-65
2021/11/18 07:29:15;;;;;;;;;28.80;24.00;;;;;13.11;51.14;99562.97;6252655;27;97208;-68
2021/11/18 07:32:21;;;;;;;;;26.00;23.00;;;;;13.14;51.12;99562.56;6241284;27;96857;-69
2021/11/18 07:35:26;;;;;;;;;24.00;21.00;;;;;13.30;50.84;99566.56;6232498;27;97231;-65
2021/11/18 07:38:32;;;;;;;;;24.60;20.00;;;;;13.69;50.33;99562.63;6227512;27;97302;-65
2021/11/18 07:41:38;;;;;;;;;25.00;20.60;;;;;15.16;47.07;99567.47;6246640;27;97560;-64
2021/11/18 07:45:06;;;;;;;;;22.60;21.00;;;;;15.30;45.88;99573.50;6261894;27;96636;-65
2021/11/18 07:48:46;;;;;;;;;23.80;21.60;;;;;15.45;45.54;99566.53;6235917;27;97567;-67
2021/11/18 07:51:54;;;;;;;;;22.20;20.00;;;;;15.66;44.83;99537.13;6250240;27;97423;-65
2021/11/18 07:54:58;;;;;;;;;25.50;20.00;;;;;16.77;42.55;99559.22;6249874;27;96626;-68
2021/11/18 07:58:01;;;;;;;;;26.00;24.40;;;;;17.62;41.28;99553.53;6242325;27;96622;-65
2021/11/18 08:01:06;;;;;;;;;28.75;25.00;;;;;17.90;40.19;99563.47;6245151;27;97059;-67
2021/11/18 08:04:13;;;;;;;;;21.40;21.00;;;;;17.83;39.58;99578.38;6233636;28;97556;-65
2021/11/18 08:07:18;;;;;;;;;24.60;22.80;;;;;19.49;37.32;99579.34;6219170;28;96699;-64
2021/11/18 08:10:22;;;;;;;;;19.50;18.25;;;;;20.76;33.82;99569.81;6241255;27;97382;-65
2021/11/18 08:13:29;;;;;;;;;21.20;20.00;;;;;22.11;31.35;99572.72;6245987;27;97509;-69
2021/11/18 08:16:33;;;;;;;;;19.00;16.80;;;;;22.17;32.04;99571.63;6247533;27;97185;-67
2021/11/18 08:19:39;;;;;;;;;17.00;16.00;;;;;21.80;31.11;99585.69;6243981;27;97048;-66
2021/11/18 08:22:48;;;;;;;;;16.80;15.80;;;;;20.96;32.69;99579.97;6245100;27;96520;-67
2021/11/18 08:25:51;;;;;;;;;20.00;17.00;;;;;20.16;34.65;99589.56;6244711;27;99786;-65
2021/11/18 08:28:55;;;;;;;;;15.00;14.60;;;;;19.17;35.65;99579.34;6244963;27;96979;-66
2021/11/18 08:32:00;;;;;;;;;16.40;14.40;;;;;18.59;36.91;99585.63;6245297;27;98319;-66
2021/11/18 08:35:23;;;;;;;;;18.75;15.75;;;;;17.91;37.72;99591.56;6256080;27;96665;-68
2021/11/18 08:38:27;;;;;;;;;14.00;12.00;;;;;17.48;39.03;99587.66;6230796;28;97395;-65
2021/11/18 08:41:31;;;;;;;;;15.00;14.00;;;;;17.14;39.81;99581.41;6249864;27;97195;-69
2021/11/18 08:44:37;;;;;;;;;17.00;15.00;;;;;16.86;40.11;99590.44;6230745;27;97441;-68
2021/11/18 08:47:40;;;;;;;;;17.40;15.60;;;;;16.76;40.78;99594.91;6245213;27;96561;-69
2021/11/18 08:50:49;;;;;;;;;17.00;16.50;;;;;16.68;40.81;99601.53;6240312;27;96520;-65
2021/11/18 08:53:57;;;;;;;;;18.67;17.00;;;;;16.65;40.94;99598.50;6235657;27;97149;-69
2021/11/18 08:57:01;;;;;;;;;15.00;13.00;;;;;16.28;40.87;99566.16;6237028;28;96926;-68
2021/11/18 09:00:18;;;;;;;;;17.00;15.00;;;;;15.95;41.07;99588.63;6239356;27;97056;-65
2021/11/18 09:03:48;;;;;;;;;15.00;13.00;;;;;15.93;41.30;99587.22;6260485;27;96749;-63
2021/11/18 09:06:56;;;;;;;;;14.00;12.50;;;;;15.72;41.22;99598.72;6228082;27;98573;-68
2021/11/18 09:09:59;;;;;;;;;16.00;14.00;;;;;15.24;42.11;99605.19;6246916;27;96712;-66
2021/11/18 09:13:04;;;;;;;;;14.00;11.00;;;;;15.33;42.37;99602.94;6244588;27;96966;-64
2021/11/18 09:16:09;;;;;;;;;13.00;11.80;;;;;15.30;42.12;99614.25;6244698;27;97397;-65
2021/11/18 09:19:16;;;;;;;;;16.00;14.00;;;;;15.30;41.96;99614.25;6234952;28;96982;-65
2021/11/18 09:22:21;;;;;;;;;17.40;14.00;;;;;15.46;41.88;99622.53;6240931;27;96780;-67
2021/11/18 09:25:27;;;;;;;;;18.40;13.40;;;;;16.48;40.25;99607.41;6226692;27;98858;-67
2021/11/18 09:28:31;;;;;;;;;15.50;14.00;;;;;18.19;37.11;99624.97;6244480;27;96673;-66
2021/11/18 09:31:58;;;;;;;;;16.00;13.00;;;;;19.76;34.85;99629.31;6241848;27;97395;-66
2021/11/18 09:35:06;;;;;;;;;13.20;12.00;;;;;19.81;34.29;99625.78;6237154;27;97618;-66
2021/11/18 09:38:12;;;;;;;;;11.20;11.00;;;;;19.55;34.54;99632.19;6231281;27;96601;-68
2021/11/18 09:41:36;;;;;;;;;14.20;11.80;;;;;19.15;33.93;99624.44;6244436;27;97379;-68
2021/11/18 09:44:57;;;;;;;;;16.00;13.00;;;;;18.87;34.98;99614.56;6234536;28;96573;-69
2021/11/18 09:48:34;;;;;;;;;12.25;10.00;;;;;18.28;35.24;99617.16;6242488;27;96562;-65
2021/11/18 09:52:04;;;;;;;;;11.40;11.00;;;;;17.81;36.20;99618.72;6235129;27;98044;-65
2021/11/18 09:55:14;;;;;;;;;12.40;11.40;;;;;17.31;37.14;99617.63;6237016;27;96864;-68
2021/11/18 09:58:28;;;;;;;;;11.00;10.40;;;;;16.99;37.50;99618.44;6259690;27;96970;-66
2021/11/18 10:01:53;;;;;;;;;12.20;11.20;;;;;16.46;38.50;99609.56;6227277;27;97314;-66
2021/11/18 10:05:02;;;;;;;;;11.00;10.00;;;;;16.19;38.92;99621.22;6220150;27;99428;-68
2021/11/18 10:08:11;;;;;;;;;10.20;9.20;;;;;16.04;39.21;99630.69;6218138;27;96393;-65
2021/11/18 10:11:21;;;;;;;;;10.60;10.60;;;;;15.75;39.81;99628.13;6225641;27;96652;-67
2021/11/18 10:14:53;;;;;;;;;13.00;10.60;;;;;15.49;40.37;99621.25;6233417;28;97426;-67
2021/11/18 10:18:00;;;;;;;;;13.00;11.20;;;;;15.31;41.02;99618.63;6241897;27;97358;-65
2021/11/18 10:21:06;;;;;;;;;13.60;13.00;;;;;15.14;41.22;99605.75;6247591;27;96591;-68
2021/11/18 10:24:14;;;;;;;;;12.00;11.00;;;;;15.29;41.28;99605.31;6258960;27;97384;-65
2021/11/18 10:27:34;;;;;;;;;14.00;13.00;;;;;15.37;41.23;99601.41;6240206;27;96752;-67
2021/11/18 10:30:42;;;;;;;;;13.00;11.80;;;;;15.36;41.21;99599.72;6220883;27;98338;-65
2021/11/18 10:34:09;;;;;;;;;10.60;10.00;;;;;15.30;41.11;99609.66;6245794;27;97410;-68
2021/11/18 10:37:15;;;;;;;;;13.33;13.00;;;;;15.41;40.95;99614.28;6251136;27;97031;-68
2021/11/18 10:40:22;;;;;;;;;10.60;9.60;;;;;15.46;40.81;99599.97;6227043;27;97408;-66
2021/11/18 10:43:30;;;;;;;;;15.00;13.00;;;;;15.60;40.12;99607.69;6246148;27;96897;-66
2021/11/18 10:46:37;;;;;;;;;14.00;12.00;;;;;16.31;39.37;99601.09;6232423;27;97474;-65
2021/11/18 10:49:58;;;;;;;;;11.00;9.00;;;;;17.45;37.24;99609.13;6248434;27;97144;-68
2021/11/18 10:53:08;;;;;;;;;10.75;10.00;;;;;18.54;35.11;99604.66;6229821;27;96644;-64
2021/11/18 10:56:14;;;;;;;;;10.00;9.00;;;;;19.37;34.29;99603.28;6227679;27;97449;-65
2021/11/18 10:59:31;;;;;;;;;11.00;10.00;;;;;20.06;32.52;99603.22;6235220;27;97408;-67
2021/11/18 11:02:36;;;;;;;;;11.00;10.00;;;;;19.98;32.73;99598.25;6249014;27;96993;-69
2021/11/18 11:05:41;;;;;;;;;12.25;11.25;;;;;19.37;33.25;99593.16;6249511;27;97555;-65
2021/11/18 11:08:47;;;;;;;;;10.50;9.00;;;;;18.86;34.15;99597.34;6209161;27;97209;-67
2021/11/18 11:12:08;;;;;;;;;10.20;9.20;;;;;19.28;33.84;99600.22;6256226;27;97535;-69
2021/11/18 11:15:44;;;;;;;;;9.20;8.60;;;;;19.58;33.52;99599.66;6259165;27;97556;-69
2021/11/18 11:18:55;;;;;;;;;11.00;10.00;;;;;19.03;34.42;99589.88;6239029;28;97088;-64
2021/11/18 11:22:05;;;;;;;;;9.00;9.00;;;;;18.51;35.73;99591.50;6258972;27;96363;-66
2021/11/18 11:25:45;;;;;;;;;10.00;9.00;;;;;17.90;37.53;99585.28;6259998;27;96541;-64
2021/11/18 11:29:08;;;;;;;;;12.00;10.00;;;;;17.40;38.72;99576.34;6205957;27;96465;-67
2021/11/18 11:32:19;;;;;;;;;12.60;10.60;;;;;17.06;39.90;99586.41;6236179;27;97513;-64
2021/11/18 11:35:34;;;;;;;;;9.20;8.20;;;;;16.91;40.12;99567.91;6259621;27;97360;-67
2021/11/18 11:38:56;;;;;;;;;10.00;9.00;;;;;16.74;39.87;99572.53;6230589;27;98598;-68
2021/11/18 11:42:28;;;;;;;;;9.60;9.00;;;;;16.40;40.63;99579.75;6249665;27;96914;-65
2021/11/18 11:45:42;;;;;;;;;11.60;10.60;;;;;16.35;41.15;99579.66;6239421;27;97381;-69
2021/11/18 11:49:03;;;;;;;;;10.00;10.00;;;;;16.23;41.24;99576.13;6251148;27;96503;-65
2021/11/18 11:52:37;;;;;;;;;9.00;8.00;;;;;15.90;41.66;99580.34;6218944;27;96730;-65
2021/11/18 11:55:59;;;;;;;;;10.00;8.00;;;;;15.55;42.23;99574.13;6224712;27;98370;-67
2021/11/18 11:59:04;;;;;;;;;8.60;7.00;;;;;15.63;42.12;99575.69;6230607;27;96777;-66
2021/11/18 12:02:15;;;;;;;;;9.60;7.00;;;;;15.70;42.49;99573.63;6262965;27;97066;-65
2021/11/18 12:05:23;;;;;;;;;7.20;6.60;;;;;15.61;41.92;99573.19;6264322;27;97526;-70
2021/11/18 12:08:34;;;;;;;;;7.00;6.00;;;;;15.51;42.31;99567.53;6264734;27;96612;-65
2021/11/18 12:11:48;;;;;;;;;8.00;7.50;;;;;15.41;42.78;99575.41;6245382;27;98001;-65
2021/11/18 12:14:51;;;;;;;;;8.60;7.60;;;;;15.39;43.20;99577.53;6248458;27;97128;-68
2021/11/18 12:18:00;;;;;;;;;8.00;6.00;;;;;15.16;43.39;99576.44;6254745;27;97204;-65
2021/11/18 12:21:05;;;;;;;;;10.60;8.60;;;;;14.97;43.94;99574.88;6225467;28;97042;-65
2021/11/18 12:24:12;;;;;;;;;8.00;7.00;;;;;14.87;44.11;99587.38;6237489;27;97224;-64
2021/11/18 12:27:26;;;;;;;;;8.00;7.00;;;;;14.75;44.39;99568.38;6220083;27;98499;-67
2021/11/18 12:31:17;;;;;;;;;9.00;8.00;;;;;14.68;44.15;99568.44;6244509;27;97749;-68
2021/11/18 12:34:51;;;;;;;;;8.80;7.80;;;;;14.62;44.33;99572.09;6246492;27;97613;-68
2021/11/18 12:38:21;;;;;;;;;8.00;7.00;;;;;14.54;44.28;99579.72;6223892;27;96821;-68
2021/11/18 12:41:47;;;;;;;;;7.00;7.00;;;;;14.49;44.07;99568.75;6224347;27;97402;-67
2021/11/18 12:45:05;;;;;;;;;8.50;7.50;;;;;14.38;44.00;99573.06;6258612;27;96972;-65
2021/11/18 12:48:19;;;;;;;;;7.50;7.00;;;;;14.19;43.94;99565.97;6244489;27;97390;-66
2021/11/18 12:51:26;;;;;;;;;7.00;6.00;;;;;14.25;44.34;99570.50;6244605;27;96674;-68
2021/11/18 12:54:35;;;;;;;;;7.00;6.80;;;;;14.22;44.21;99549.28;6243847;27;97542;-68
2021/11/18 12:57:41;;;;;;;;;8.00;7.00;;;;;14.27;43.99;99563.78;6249684;27;96634;-68
2021/11/18 13:00:47;;;;;;;;;8.00;7.00;;;;;14.19;44.25;99568.69;6261329;27;97445;-67
2021/11/18 13:04:01;;;;;;;;;8.00;7.00;;;;;14.23;44.39;99564.47;6247339;27;97515;-66
2021/11/18 13:07:07;;;;;;;;;7.40;6.40;;;;;14.09;44.06;99541.28;6237294;27;96664;-66
2021/11/18 13:10:35;;;;;;;;;9.00;8.00;;;;;14.33;44.09;99562.03;6244831;27;96790;-68
2021/11/18 13:13:40;;;;;;;;;8.00;8.00;;;;;14.26;43.93;99569.44;6260797;27;97521;-66
2021/11/18 13:17:00;;;;;;;;;9.00;8.00;;;;;13.85;44.14;99511.34;6248843;27;96576;-68
2021/11/18 13:20:34;;;;;;;;;8.60;8.00;;;;;14.15;44.32;99553.94;6263130;27;97487;-69
2021/11/18 13:23:53;;;;;;;;;9.20;8.60;;;;;14.14;44.24;99558.53;6240278;27;96630;-68
2021/11/18 13:26:57;;;;;;;;;8.00;8.00;;;;;14.22;44.12;99560.91;6216263;27;100381;-67
2021/11/18 13:30:37;;;;;;;;;8.00;8.00;;;;;14.11;44.00;99547.31;6236456;27;96857;-66
2021/11/18 13:33:43;;;;;;;;;10.67;8.67;;;;;14.32;43.84;99557.66;6239892;27;97015;-69
2021/11/18 13:37:00;;;;;;;;;8.20;7.20;;;;;14.27;43.93;99557.50;6251176;27;97454;-65
2021/11/18 13:40:16;;;;;;;;;11.00;9.00;;;;;14.28;43.86;99556.47;6262943;27;97036;-67
2021/11/18 13:43:23;;;;;;;;;11.00;10.40;;;;;14.20;43.91;99548.66;6249294;27;97516;-66
2021/11/18 13:46:29;;;;;;;;;10.00;9.00;;;;;14.17;43.71;99554.56;6254314;27;97108;-69
2021/11/18 13:49:34;;;;;;;;;11.00;10.00;;;;;14.14;44.00;99555.81;6254529;27;96755;-67
2021/11/18 13:52:40;;;;;;;;;10.00;9.00;;;;;13.82;44.18;99521.84;6253883;27;97424;-65
2021/11/18 13:55:51;;;;;;;;;11.00;10.00;;;;;13.81;44.47;99553.53;6252933;27;98035;-65
2021/11/18 13:59:01;;;;;;;;;11.00;9.00;;;;;13.75;44.58;99529.19;6260228;27;97471;-64
2021/11/18 14:02:09;;;;;;;;;14.00;12.00;;;;;14.00;44.55;99546.19;6219088;27;98368;-68
2021/11/18 14:05:17;;;;;;;;;11.50;11.00;;;;;14.12;44.44;99551.69;6250647;27;97579;-67
2021/11/18 14:08:24;;;;;;;;;13.00;10.50;;;;;14.20;44.29;99546.78;6222916;27;97253;-65
2021/11/18 14:11:29;;;;;;;;;13.00;12.40;;;;;14.23;43.97;99534.63;6233295;28;96710;-65
2021/11/18 14:14:47;;;;;;;;;14.00;12.60;;;;;14.18;44.10;99538.03;6233466;28;97512;-66
2021/11/18 14:17:55;;;;;;;;;13.00;12.40;;;;;14.06;44.21;99534.44;6232544;28;96777;-68
2021/11/18 14:21:12;;;;;;;;;13.75;11.75;;;;;14.02;44.20;99535.97;6218353;28;97884;-68
2021/11/18 14:24:31;;;;;;;;;15.00;12.80;;;;;13.91;44.39;99531.31;6218210;28;97165;-69
2021/11/18 14:27:34;;;;;;;;;15.00;14.00;;;;;13.86;44.57;99528.44;6232305;28;96617;-68
2021/11/18 14:30:45;;;;;;;;;13.60;12.00;;;;;13.82;44.62;99540.81;6225109;28;98296;-66
2021/11/18 14:34:00;;;;;;;;;13.00;12.60;;;;;13.87;44.46;99558.03;6213990;28;96747;-69